Lotheni — ZR8530 — position and weather

sailwx.info

Track history (hours):
 
Tides and Currents Weather Stations Pressure Air Temp Water Temp Dewpoint Dewpoint Depression Visibility Wind Speed Wind Dir Waves Ship Positions

Lotheni

Last reported at 2017-Jun-27 08:29 UTC. Time now 2017-Jun-27 08:44 UTC.
Position S 29°52' E 031°01'.

Type: Tug. MMSI: 601135800.

Date/timePositionNaut miles runAvg speedWind from/ knotsBaromVisibWave heightAir tempDewpointWater temp
2017-Jun-27 08:29S 29°52' E 031°01'1 2.9
2017-Jun-27 07:59S 29°52' E 031°03'0 0.0
2017-Jun-27 07:29S 29°52' E 031°03'1 1.2
2017-Jun-27 07:00S 29°52' E 031°02'0 0.1
2017-Jun-27 06:29S 29°52' E 031°02'1 1.6
2017-Jun-27 06:00S 29°53' E 031°03'1 2.5
2017-Jun-27 05:29S 29°52' E 031°02'0 0.0
2017-Jun-27 04:59S 29°52' E 031°02'0 0.0
2017-Jun-27 03:41S 29°52' E 031°02'0 0.0
2017-Jun-27 01:41S 29°52' E 031°02'0 0.0
2017-Jun-27 01:17S 29°52' E 031°02'1 1.9
2017-Jun-27 01:00S 29°52' E 031°02'1 1.9
2017-Jun-27 00:30S 29°53' E 031°03'0 0.5
2017-Jun-26 23:58S 29°52' E 031°03'0 0.0
2017-Jun-26 23:28S 29°52' E 031°03'1 2.0
2017-Jun-26 22:58S 29°53' E 031°02'0 0.4
2017-Jun-26 22:30S 29°53' E 031°02'1 2.6
2017-Jun-26 22:00S 29°53' E 031°03'1 0.5
2017-Jun-26 19:19S 29°52' E 031°02'0 0.0
2017-Jun-26 18:58S 29°52' E 031°02'2 1.5
2017-Jun-26 17:43S 29°53' E 031°00'1 4.0
2017-Jun-26 17:30S 29°52' E 031°01'1 0.5
2017-Jun-26 15:13S 29°52' E 031°02'0 0.0
2017-Jun-26 14:04S 29°52' E 031°02'0 0.6
2017-Jun-26 13:30S 29°52' E 031°02'0 0.4
2017-Jun-26 12:37S 29°52' E 031°02'0 0.0
2017-Jun-26 12:28S 29°52' E 031°02'0 0.0
2017-Jun-26 11:52S 29°52' E 031°02'1 3.1
2017-Jun-26 11:30S 29°52' E 031°01'1 2.2
2017-Jun-26 11:00S 29°53' E 030°60'0 0.0
2017-Jun-26 09:48S 29°53' E 030°60'0 0.0
2017-Jun-26 08:09S 29°53' E 030°60'0 0.0
2017-Jun-26 07:00S 29°53' E 030°60'0 0.0
2017-Jun-26 06:29S 29°53' E 030°60'1 2.6
2017-Jun-26 06:00S 29°53' E 031°01'0 0.1
2017-Jun-26 05:25S 29°53' E 031°01'1 2.0
2017-Jun-26 04:52S 29°52' E 031°02'0 0.0
2017-Jun-26 04:28S 29°52' E 031°02'0 0.0
2017-Jun-26 03:58S 29°52' E 031°02'0 0.0
2017-Jun-26 03:22S 29°52' E 031°02'0 0.0
2017-Jun-26 02:58S 29°52' E 031°02'0 0.0
2017-Jun-26 02:28S 29°52' E 031°02'0 0.0
2017-Jun-26 01:58S 29°52' E 031°02'0 0.0
2017-Jun-26 01:24S 29°52' E 031°02'1 1.9
2017-Jun-26 01:00S 29°53' E 031°01'0 0.8
2017-Jun-26 00:30S 29°53' E 031°02'0 0.7
2017-Jun-25 23:59S 29°52' E 031°02'0 1.0
2017-Jun-25 23:30S 29°52' E 031°02'0 0.0
2017-Jun-25 22:51S 29°52' E 031°02'0 0.0
2017-Jun-25 22:27S 29°52' E 031°02'0 0.0
2017-Jun-25 21:57S 29°52' E 031°02'1 1.7
2017-Jun-25 21:30S 29°52' E 031°01'1 1.5
2017-Jun-25 20:41S 29°53' E 031°00'1 4.2
2017-Jun-25 20:28S 29°52' E 031°01'2 3.6
2017-Jun-25 19:58S 29°52' E 031°03'0 0.0
2017-Jun-25 19:28S 29°52' E 031°03'0 0.0
2017-Jun-25 18:58S 29°52' E 031°03'1 1.1
2017-Jun-25 18:28S 29°52' E 031°02'0 0.0
2017-Jun-25 18:00S 29°52' E 031°02'0 0.3
2017-Jun-25 17:28S 29°52' E 031°02'0 0.2
2017-Jun-25 17:00S 29°52' E 031°02'1 1.1
2017-Jun-25 16:30S 29°52' E 031°02'0 0.0
2017-Jun-25 16:00S 29°52' E 031°02'0 0.0
2017-Jun-25 15:30S 29°52' E 031°02'0 0.0
2017-Jun-25 15:00S 29°52' E 031°02'1 2.4
2017-Jun-25 14:29S 29°53' E 031°01'1 1.2
2017-Jun-25 13:30S 29°53' E 031°03'1 1.7
2017-Jun-25 13:00S 29°52' E 031°02'0 0.6
2017-Jun-25 12:27S 29°52' E 031°02'0 0.0
2017-Jun-25 11:57S 29°52' E 031°02'0 0.0
2017-Jun-25 11:27S 29°52' E 031°02'0 0.0
2017-Jun-25 11:00S 29°52' E 031°02'1 1.3
2017-Jun-25 10:30S 29°52' E 031°02'0 0.5
2017-Jun-25 10:00S 29°53' E 031°02'0 0.7
2017-Jun-25 09:30S 29°52' E 031°03'0 0.0
2017-Jun-25 08:57S 29°52' E 031°03'0 0.9
2017-Jun-25 08:30S 29°52' E 031°02'1 1.4
2017-Jun-25 08:00S 29°52' E 031°02'0 0.0
2017-Jun-25 07:30S 29°52' E 031°02'0 0.0
2017-Jun-25 07:00S 29°52' E 031°02'0 0.0
2017-Jun-25 06:30S 29°52' E 031°02'1 1.0
2017-Jun-25 05:53S 29°52' E 031°02'1 2.1
2017-Jun-25 05:30S 29°53' E 031°03'1 2.6
2017-Jun-25 04:59S 29°52' E 031°02'0 0.0
2017-Jun-25 04:29S 29°52' E 031°02'0 0.0
2017-Jun-25 03:56S 29°52' E 031°02'0 0.0
2017-Jun-25 03:29S 29°52' E 031°02'0 0.0
2017-Jun-25 02:50S 29°52' E 031°02'0 0.0
2017-Jun-25 02:26S 29°52' E 031°02'0 0.0
2017-Jun-25 01:59S 29°52' E 031°02'0 0.0
2017-Jun-25 01:26S 29°52' E 031°02'0 0.0
2017-Jun-25 00:59S 29°52' E 031°02'0 0.0
2017-Jun-25 00:29S 29°52' E 031°02'0 0.0
2017-Jun-24 23:59S 29°52' E 031°02'0 0.0
2017-Jun-24 23:26S 29°52' E 031°02'0 0.0
2017-Jun-24 22:59S 29°52' E 031°02'0 0.0
2017-Jun-24 22:26S 29°52' E 031°02'0 0.0
2017-Jun-24 21:56S 29°52' E 031°02'1 2.3
2017-Jun-24 21:31S 29°53' E 031°01'0 0.1
2017-Jun-24 20:59S 29°53' E 031°01'0 0.6
2017-Jun-24 20:30S 29°53' E 031°02'1 1.8
2017-Jun-24 20:00S 29°53' E 031°02'1 1.1
2017-Jun-24 19:30S 29°53' E 031°02'1 1.9
2017-Jun-24 18:59S 29°52' E 031°03'1 1.4
2017-Jun-24 18:30S 29°52' E 031°03'0 0.6
2017-Jun-24 18:00S 29°53' E 031°03'1 2.9
2017-Jun-24 17:30S 29°53' E 031°02'0 0.5
2017-Jun-24 16:58S 29°53' E 031°02'1 2.4
2017-Jun-24 16:28S 29°52' E 031°02'0 0.0
2017-Jun-24 15:58S 29°52' E 031°02'0 0.0
2017-Jun-24 15:28S 29°52' E 031°02'0 0.0
2017-Jun-24 14:58S 29°52' E 031°02'0 0.0
2017-Jun-24 13:58S 29°52' E 031°02'0 0.0
2017-Jun-24 13:28S 29°52' E 031°02'0 0.0
2017-Jun-24 12:58S 29°52' E 031°02'0 0.0
2017-Jun-24 12:28S 29°52' E 031°02'0 0.0
2017-Jun-24 11:58S 29°52' E 031°02'0 0.0
2017-Jun-24 11:28S 29°52' E 031°02'0 0.0
2017-Jun-24 10:58S 29°52' E 031°02'0 0.1
2017-Jun-24 10:30S 29°52' E 031°02'1 2.8
2017-Jun-24 09:59S 29°53' E 031°02'1 2.3
2017-Jun-24 09:30S 29°52' E 031°02'0 0.7
2017-Jun-24 08:55S 29°52' E 031°02'0 0.0
2017-Jun-24 08:25S 29°52' E 031°02'0 0.0
2017-Jun-24 07:55S 29°52' E 031°02'0 0.0
2017-Jun-24 07:22S 29°52' E 031°02'0 0.0
2017-Jun-24 06:55S 29°52' E 031°02'1 3.4
2017-Jun-24 06:29S 29°53' E 031°03'0 0.6
2017-Jun-24 06:00S 29°53' E 031°03'1 1.6
2017-Jun-24 05:30S 29°52' E 031°02'1 1.1
2017-Jun-24 05:00S 29°52' E 031°02'0 0.0
2017-Jun-24 04:30S 29°52' E 031°02'0 0.0
2017-Jun-24 04:00S 29°52' E 031°02'0 0.0
2017-Jun-24 03:30S 29°52' E 031°02'1 1.2
2017-Jun-24 03:00S 29°52' E 031°02'1 1.3
2017-Jun-24 02:30S 29°53' E 031°01'1 1.5
2017-Jun-24 02:00S 29°52' E 031°02'1 1.3
2017-Jun-24 01:30S 29°52' E 031°02'0 0.0
2017-Jun-24 01:00S 29°52' E 031°02'0 0.6
2017-Jun-24 00:30S 29°52' E 031°02'1 1.5
2017-Jun-24 00:00S 29°53' E 031°01'0 0.4
2017-Jun-23 23:30S 29°53' E 031°02'1 1.5
2017-Jun-23 23:01S 29°53' E 031°02'1 1.6
2017-Jun-23 22:27S 29°52' E 031°02'0 0.0
2017-Jun-23 22:00S 29°52' E 031°02'0 0.0
2017-Jun-23 21:27S 29°52' E 031°02'0 0.0
2017-Jun-23 21:00S 29°52' E 031°02'1 1.0
2017-Jun-23 20:29S 29°52' E 031°02'1 1.0
2017-Jun-23 19:59S 29°53' E 031°02'1 1.3
2017-Jun-23 19:30S 29°52' E 031°02'0 0.8
2017-Jun-23 18:57S 29°52' E 031°02'0 0.0
2017-Jun-23 18:30S 29°52' E 031°02'0 0.0
2017-Jun-23 18:00S 29°52' E 031°02'0 0.0
2017-Jun-23 17:30S 29°52' E 031°02'0 0.0
2017-Jun-23 17:00S 29°52' E 031°02'0 0.0
2017-Jun-23 16:30S 29°52' E 031°02'0 0.0
2017-Jun-23 16:00S 29°52' E 031°02'0 0.0
2017-Jun-23 15:30S 29°52' E 031°02'0 0.0
2017-Jun-23 15:00S 29°52' E 031°02'0 0.0
2017-Jun-23 13:57S 29°52' E 031°02'0 0.0
2017-Jun-23 13:30S 29°52' E 031°02'0 0.0
2017-Jun-23 13:00S 29°52' E 031°02'0 0.0
2017-Jun-23 12:24S 29°52' E 031°02'0 0.0
2017-Jun-23 12:00S 29°52' E 031°02'0 0.0
2017-Jun-23 11:30S 29°52' E 031°02'0 0.0
2017-Jun-23 11:00S 29°52' E 031°02'1 1.7
2017-Jun-23 10:16S 29°52' E 031°01'1 2.0
2017-Jun-23 10:00S 29°52' E 031°01'2 3.8
2017-Jun-23 09:30S 29°53' E 031°03'2 4.5
2017-Jun-23 09:00S 29°52' E 031°01'0 0.2
2017-Jun-23 08:22S 29°52' E 031°01'1 3.8
2017-Jun-23 07:59S 29°53' E 031°02'0 0.6
2017-Jun-23 07:28S 29°52' E 031°03'0 0.6
2017-Jun-23 07:00S 29°53' E 031°02'1 2.4
2017-Jun-23 06:30S 29°53' E 031°01'0 0.4
2017-Jun-23 06:00S 29°53' E 031°01'2 3.3
2017-Jun-23 05:30S 29°53' E 031°03'1 2.3
2017-Jun-23 04:51S 29°52' E 031°02'0 0.0
2017-Jun-23 04:30S 29°52' E 031°02'0 0.0
2017-Jun-23 03:54S 29°52' E 031°02'0 0.0
2017-Jun-23 03:27S 29°52' E 031°02'0 0.0
2017-Jun-23 03:00S 29°52' E 031°02'0 0.0
2017-Jun-23 02:27S 29°52' E 031°02'0 0.0
2017-Jun-23 02:00S 29°52' E 031°02'0 0.0
2017-Jun-23 01:06S 29°52' E 031°02'0 0.0
2017-Jun-23 00:54S 29°52' E 031°02'0 0.0
2017-Jun-23 00:27S 29°52' E 031°02'0 0.0
2017-Jun-22 23:57S 29°52' E 031°02'1 1.8
2017-Jun-22 23:28S 29°52' E 031°02'0 0.5
2017-Jun-22 22:58S 29°52' E 031°03'0 0.0
2017-Jun-22 22:28S 29°52' E 031°03'0 0.0
2017-Jun-22 21:58S 29°52' E 031°03'0 0.0
2017-Jun-22 21:28S 29°52' E 031°03'0 0.0
2017-Jun-22 20:58S 29°52' E 031°03'1 2.7
2017-Jun-22 20:30S 29°52' E 031°01'1 2.4
2017-Jun-22 19:58S 29°53' E 031°00'1 3.1
2017-Jun-22 19:30S 29°52' E 031°02'0 0.8
2017-Jun-22 18:59S 29°52' E 031°02'0 0.0
2017-Jun-22 18:29S 29°52' E 031°02'0 0.0
2017-Jun-22 17:56S 29°52' E 031°02'1 1.5
2017-Jun-22 17:30S 29°52' E 031°02'1 0.0
2017-Jun-21 21:59S 29°52' E 031°02'0 0.0
2017-Jun-21 21:30S 29°52' E 031°02'0 0.0
2017-Jun-21 20:59S 29°52' E 031°02'0 0.0
2017-Jun-21 20:29S 29°52' E 031°02'0 0.0
2017-Jun-21 20:01S 29°52' E 031°02'1 1.6
2017-Jun-21 19:30S 29°53' E 031°02'0 0.4
2017-Jun-21 19:00S 29°53' E 031°02'1 1.6
2017-Jun-21 18:24S 29°52' E 031°02'0 0.0
2017-Jun-21 18:00S 29°52' E 031°02'0 0.0
2017-Jun-21 17:30S 29°52' E 031°02'0 0.0
2017-Jun-21 17:00S 29°52' E 031°02'0 0.0
2017-Jun-21 16:30S 29°52' E 031°02'0 0.0
2017-Jun-21 16:00S 29°52' E 031°02'0 0.0
2017-Jun-21 15:30S 29°52' E 031°02'0 0.0
2017-Jun-21 15:00S 29°52' E 031°02'1 2.3
2017-Jun-21 14:30S 29°53' E 031°02'0 0.4
2017-Jun-21 13:30S 29°53' E 031°02'1 2.0
2017-Jun-21 12:59S 29°53' E 031°03'1 3.0
2017-Jun-21 12:30S 29°52' E 031°02'0 0.0
2017-Jun-21 12:00S 29°52' E 031°02'0 0.0
2017-Jun-21 11:27S 29°52' E 031°02'1 1.7
2017-Jun-21 11:00S 29°53' E 031°02'1 1.7
2017-Jun-21 10:29S 29°53' E 031°03'0 0.1
2017-Jun-21 09:59S 29°53' E 031°03'1 2.7
2017-Jun-21 09:28S 29°52' E 031°02'0 0.0
2017-Jun-21 08:55S 29°52' E 031°02'0 1.0
2017-Jun-21 08:30S 29°52' E 031°02'1 2.1
2017-Jun-21 08:00S 29°53' E 031°03'0 0.8
2017-Jun-21 07:30S 29°53' E 031°03'0 0.8
2017-Jun-21 06:58S 29°53' E 031°03'0 0.6
2017-Jun-21 06:30S 29°53' E 031°03'2 3.5
2017-Jun-21 05:57S 29°52' E 031°01'1 2.4
2017-Jun-21 05:27S 29°52' E 031°02'0 0.0
2017-Jun-21 04:57S 29°52' E 031°02'0 0.0
2017-Jun-21 04:27S 29°52' E 031°02'0 0.0
2017-Jun-21 03:57S 29°52' E 031°02'0 0.0
2017-Jun-21 03:21S 29°52' E 031°02'0 0.0
2017-Jun-21 02:57S 29°52' E 031°02'0 0.0
2017-Jun-21 02:27S 29°52' E 031°02'0 0.0
2017-Jun-21 02:00S 29°52' E 031°02'0 0.0
2017-Jun-21 01:27S 29°52' E 031°02'0 0.0
2017-Jun-21 00:57S 29°52' E 031°02'0 0.0
2017-Jun-21 00:27S 29°52' E 031°02'0 0.0
2017-Jun-20 23:51S 29°52' E 031°02'0 0.0
2017-Jun-20 23:27S 29°52' E 031°02'0 0.0
2017-Jun-20 23:00S 29°52' E 031°02'0 0.6
2017-Jun-20 22:30S 29°52' E 031°02'1 1.2
2017-Jun-20 22:00S 29°53' E 031°02'1 1.2
2017-Jun-20 21:30S 29°53' E 031°02'1 1.1
2017-Jun-20 21:00S 29°53' E 031°03'1 1.4
2017-Jun-20 20:07S 29°52' E 031°02'0 0.0
2017-Jun-20 19:55S 29°52' E 031°02'0 0.0
2017-Jun-20 19:19S 29°52' E 031°02'0 0.0
2017-Jun-20 18:55S 29°52' E 031°02'0 0.0
2017-Jun-20 18:25S 29°52' E 031°02'0 0.0
2017-Jun-20 17:55S 29°52' E 031°02'0 0.0
2017-Jun-20 17:25S 29°52' E 031°02'0 0.0
2017-Jun-20 16:49S 29°52' E 031°02'0 0.0
2017-Jun-20 16:25S 29°52' E 031°02'0 0.0
2017-Jun-20 15:49S 29°52' E 031°02'0 0.0
2017-Jun-20 15:19S 29°52' E 031°02'0 0.0
2017-Jun-20 14:49S 29°52' E 031°02'1 2.7
2017-Jun-20 14:30S 29°53' E 031°02'1 0.8
2017-Jun-20 13:30S 29°52' E 031°02'0 0.0
2017-Jun-20 13:00S 29°52' E 031°02'0 0.0
2017-Jun-20 12:30S 29°52' E 031°02'0 0.0
2017-Jun-20 11:57S 29°52' E 031°02'0 0.0
2017-Jun-20 11:30S 29°52' E 031°02'0 0.2
2017-Jun-20 11:00S 29°52' E 031°02'0 0.0
2017-Jun-20 10:27S 29°52' E 031°02'0 0.0
2017-Jun-20 09:51S 29°52' E 031°02'0 0.0
2017-Jun-20 08:33S 29°52' E 031°02'0 0.0
2017-Jun-20 08:27S 29°52' E 031°02'0 0.0
2017-Jun-20 07:51S 29°52' E 031°02'0 0.0
2017-Jun-20 07:30S 29°52' E 031°02'0 0.0
2017-Jun-20 06:57S 29°52' E 031°02'0 1.0
2017-Jun-20 06:30S 29°52' E 031°02'0 0.8
2017-Jun-20 06:00S 29°52' E 031°02'1 1.3
2017-Jun-20 05:30S 29°52' E 031°02'0 0.5
2017-Jun-20 04:59S 29°52' E 031°02'0 0.1
2017-Jun-20 04:28S 29°52' E 031°02'0 0.0
2017-Jun-20 03:58S 29°52' E 031°02'0 0.0
2017-Jun-20 03:28S 29°52' E 031°02'0 0.0
2017-Jun-20 02:55S 29°52' E 031°02'0 0.0
2017-Jun-20 02:28S 29°52' E 031°02'0 0.0
2017-Jun-20 01:58S 29°52' E 031°02'0 0.0
2017-Jun-20 01:28S 29°52' E 031°02'0 0.0
2017-Jun-20 00:58S 29°52' E 031°02'0 0.0
2017-Jun-20 00:28S 29°52' E 031°02'0 0.0
2017-Jun-19 23:58S 29°52' E 031°02'0 0.0
2017-Jun-19 23:28S 29°52' E 031°02'0 0.0
2017-Jun-19 22:52S 29°52' E 031°02'0 0.0
2017-Jun-19 22:25S 29°52' E 031°02'0 1.1
2017-Jun-19 22:00S 29°52' E 031°01'2 3.0
2017-Jun-19 21:25S 29°53' E 030°60'1 2.9
2017-Jun-19 20:59S 29°52' E 031°01'1 2.6
2017-Jun-19 20:30S 29°52' E 031°02'1 1.3
2017-Jun-19 19:54S 29°52' E 031°02'0 0.0
2017-Jun-19 19:24S 29°52' E 031°02'0 0.0
2017-Jun-19 19:00S 29°52' E 031°02'0 0.0
2017-Jun-19 18:03S 29°52' E 031°02'0 0.0
2017-Jun-19 17:36S 29°52' E 031°02'0 0.0
2017-Jun-19 17:18S 29°52' E 031°02'0 0.0
2017-Jun-19 16:51S 29°52' E 031°02'0 0.0
2017-Jun-19 15:00S 29°52' E 031°02'0 0.0
2017-Jun-19 14:30S 29°52' E 031°02'0 0.0
2017-Jun-19 13:30S 29°52' E 031°02'1 1.8
2017-Jun-19 12:59S 29°53' E 031°02'0 1.0
2017-Jun-19 12:30S 29°53' E 031°03'1 2.6
2017-Jun-19 12:00S 29°52' E 031°02'0 0.0
2017-Jun-19 11:30S 29°52' E 031°02'0 0.0
2017-Jun-19 11:00S 29°52' E 031°02'0 0.0
2017-Jun-19 10:30S 29°52' E 031°02'0 0.0
2017-Jun-19 10:00S 29°52' E 031°02'0 0.0
2017-Jun-19 09:30S 29°52' E 031°02'0 0.0
2017-Jun-19 09:00S 29°52' E 031°02'0 0.7
2017-Jun-19 08:30S 29°52' E 031°02'1 2.5
2017-Jun-19 08:00S 29°53' E 031°03'0 0.1
2017-Jun-19 07:30S 29°53' E 031°03'0 0.7
2017-Jun-19 07:00S 29°52' E 031°03'0 0.0
2017-Jun-19 06:30S 29°52' E 031°03'1 2.4
2017-Jun-19 05:59S 29°53' E 031°01'1 2.4
2017-Jun-19 05:30S 29°53' E 031°03'1 2.2
2017-Jun-19 04:59S 29°52' E 031°02'0 0.0
2017-Jun-19 04:20S 29°52' E 031°02'0 0.0
2017-Jun-19 03:50S 29°52' E 031°02'0 0.0
2017-Jun-19 03:26S 29°52' E 031°02'0 0.0
2017-Jun-19 02:59S 29°52' E 031°02'1 2.0
2017-Jun-19 02:30S 29°53' E 031°02'1 1.7
2017-Jun-19 02:00S 29°53' E 031°02'0 0.6
2017-Jun-19 01:29S 29°53' E 031°01'1 1.5
2017-Jun-19 00:46S 29°52' E 031°02'0 0.0
2017-Jun-19 00:28S 29°52' E 031°02'0 0.0
2017-Jun-18 23:58S 29°52' E 031°02'0 0.0
2017-Jun-18 23:22S 29°52' E 031°02'0 0.0
2017-Jun-18 22:53S 29°52' E 031°02'0 0.0
2017-Jun-18 22:22S 29°52' E 031°02'0 0.0
2017-Jun-18 21:58S 29°52' E 031°02'0 0.0
2017-Jun-18 21:29S 29°52' E 031°02'0 0.3
2017-Jun-18 21:01S 29°52' E 031°02'1 2.1
2017-Jun-18 20:22S 29°53' E 031°02'0 0.0
2017-Jun-18 20:01S 29°53' E 031°02'0 0.5
2017-Jun-18 19:30S 29°53' E 031°02'1 1.3
2017-Jun-18 18:25S 29°52' E 031°02'0 0.0
2017-Jun-18 17:54S 29°52' E 031°02'1 1.9
2017-Jun-18 17:29S 29°53' E 031°02'0 0.8
2017-Jun-18 16:57S 29°52' E 031°02'1 1.0
2017-Jun-18 16:24S 29°52' E 031°02'0 0.0
2017-Jun-18 15:54S 29°52' E 031°02'0 0.0
2017-Jun-18 15:22S 29°52' E 031°02'1 2.8
2017-Jun-18 14:59S 29°53' E 031°02'1 0.6
2017-Jun-18 13:58S 29°52' E 031°02'1 1.5
2017-Jun-18 13:30S 29°53' E 031°03'1 1.6
2017-Jun-18 13:00S 29°52' E 031°02'0 0.8
2017-Jun-18 12:30S 29°52' E 031°02'0 0.8
2017-Jun-18 12:00S 29°52' E 031°02'0 0.7
2017-Jun-18 11:30S 29°52' E 031°02'0 0.0
2017-Jun-18 10:42S 29°52' E 031°02'0 0.0
2017-Jun-18 10:30S 29°52' E 031°02'0 0.0
2017-Jun-18 10:00S 29°52' E 031°02'0 0.0
2017-Jun-18 09:30S 29°52' E 031°02'0 0.0
2017-Jun-18 09:00S 29°52' E 031°02'0 1.0
2017-Jun-18 08:30S 29°52' E 031°01'2 2.4
2017-Jun-18 07:51S 29°53' E 030°60'1 3.4
2017-Jun-18 07:29S 29°52' E 031°01'1 2.4
2017-Jun-18 06:58S 29°52' E 031°02'1 2.5
2017-Jun-18 06:30S 29°53' E 031°01'0 0.5
2017-Jun-18 06:00S 29°53' E 031°01'2 3.1
2017-Jun-18 05:30S 29°53' E 031°03'1 2.0
2017-Jun-18 04:48S 29°52' E 031°02'0 0.0
2017-Jun-18 04:30S 29°52' E 031°02'0 0.0
2017-Jun-18 04:00S 29°52' E 031°02'0 0.0
2017-Jun-18 03:24S 29°52' E 031°02'0 0.0
2017-Jun-18 02:57S 29°52' E 031°02'0 0.0
2017-Jun-18 02:30S 29°52' E 031°02'0 0.0
2017-Jun-18 01:03S 29°52' E 031°02'0 0.0
2017-Jun-18 01:00S 29°52' E 031°02'0 0.0
2017-Jun-18 00:30S 29°52' E 031°02'0 0.0
2017-Jun-17 23:57S 29°52' E 031°02'0 0.0
2017-Jun-17 23:21S 29°52' E 031°02'0 0.0
2017-Jun-17 23:00S 29°52' E 031°02'0 0.0
2017-Jun-17 22:18S 29°52' E 031°02'0 0.0
2017-Jun-17 22:00S 29°52' E 031°02'0 0.0
2017-Jun-17 21:31S 29°52' E 031°02'1 2.0
2017-Jun-17 21:00S 29°53' E 031°02'0 0.4
2017-Jun-17 20:30S 29°53' E 031°02'0 0.9
2017-Jun-17 20:00S 29°52' E 031°02'1 1.8
2017-Jun-17 19:30S 29°52' E 031°02'0 0.0
2017-Jun-17 18:51S 29°52' E 031°02'1 1.4
2017-Jun-17 18:29S 29°52' E 031°02'0 0.9
2017-Jun-17 18:00S 29°52' E 031°02'0 0.1
2017-Jun-17 17:29S 29°52' E 031°02'0 0.3
2017-Jun-17 16:55S 29°52' E 031°02'0 0.0
2017-Jun-17 16:19S 29°52' E 031°02'0 0.0
2017-Jun-17 15:49S 29°52' E 031°02'0 0.0
2017-Jun-17 15:28S 29°52' E 031°02'0 0.0
2017-Jun-17 14:55S 29°52' E 031°02'0 0.0
2017-Jun-17 13:58S 29°52' E 031°02'0 0.0
2017-Jun-17 13:25S 29°52' E 031°02'0 0.0
2017-Jun-17 12:58S 29°52' E 031°02'0 0.0
2017-Jun-17 12:28S 29°52' E 031°02'0 0.0
2017-Jun-17 11:52S 29°52' E 031°02'0 0.0
2017-Jun-17 11:28S 29°52' E 031°02'0 0.0
2017-Jun-17 10:58S 29°52' E 031°02'  
Track history (hours):
 
Tides and Currents Weather Stations Pressure Air Temp Water Temp Dewpoint Dewpoint Depression Visibility Wind Speed Wind Dir Waves Ship Positions

Lotheni

Last reported at 2017-Jun-27 08:29 UTC. Time now 2017-Jun-27 08:44 UTC.
Position S 29°52' E 031°01'.

Type: Tug. MMSI: 601135800.

Date/timePositionNaut miles runAvg speedWind from/ knotsBaromVisibWave heightAir tempDewpointWater temp
2017-Jun-27 08:29S 29°52' E 031°01'1 2.9
2017-Jun-27 07:59S 29°52' E 031°03'0 0.0
2017-Jun-27 07:29S 29°52' E 031°03'1 1.2
2017-Jun-27 07:00S 29°52' E 031°02'0 0.1
2017-Jun-27 06:29S 29°52' E 031°02'1 1.6
2017-Jun-27 06:00S 29°53' E 031°03'1 2.5
2017-Jun-27 05:29S 29°52' E 031°02'0 0.0
2017-Jun-27 04:59S 29°52' E 031°02'0 0.0
2017-Jun-27 03:41S 29°52' E 031°02'0 0.0
2017-Jun-27 01:41S 29°52' E 031°02'0 0.0
2017-Jun-27 01:17S 29°52' E 031°02'1 1.9
2017-Jun-27 01:00S 29°52' E 031°02'1 1.9
2017-Jun-27 00:30S 29°53' E 031°03'0 0.5
2017-Jun-26 23:58S 29°52' E 031°03'0 0.0
2017-Jun-26 23:28S 29°52' E 031°03'1 2.0
2017-Jun-26 22:58S 29°53' E 031°02'0 0.4
2017-Jun-26 22:30S 29°53' E 031°02'1 2.6
2017-Jun-26 22:00S 29°53' E 031°03'1 0.5
2017-Jun-26 19:19S 29°52' E 031°02'0 0.0
2017-Jun-26 18:58S 29°52' E 031°02'2 1.5
2017-Jun-26 17:43S 29°53' E 031°00'1 4.0
2017-Jun-26 17:30S 29°52' E 031°01'1 0.5
2017-Jun-26 15:13S 29°52' E 031°02'0 0.0
2017-Jun-26 14:04S 29°52' E 031°02'0 0.6
2017-Jun-26 13:30S 29°52' E 031°02'0 0.4
2017-Jun-26 12:37S 29°52' E 031°02'0 0.0
2017-Jun-26 12:28S 29°52' E 031°02'0 0.0
2017-Jun-26 11:52S 29°52' E 031°02'1 3.1
2017-Jun-26 11:30S 29°52' E 031°01'1 2.2
2017-Jun-26 11:00S 29°53' E 030°60'0 0.0
2017-Jun-26 09:48S 29°53' E 030°60'0 0.0
2017-Jun-26 08:09S 29°53' E 030°60'0 0.0
2017-Jun-26 07:00S 29°53' E 030°60'0 0.0
2017-Jun-26 06:29S 29°53' E 030°60'1 2.6
2017-Jun-26 06:00S 29°53' E 031°01'0 0.1
2017-Jun-26 05:25S 29°53' E 031°01'1 2.0
2017-Jun-26 04:52S 29°52' E 031°02'0 0.0
2017-Jun-26 04:28S 29°52' E 031°02'0 0.0
2017-Jun-26 03:58S 29°52' E 031°02'0 0.0
2017-Jun-26 03:22S 29°52' E 031°02'0 0.0
2017-Jun-26 02:58S 29°52' E 031°02'0 0.0
2017-Jun-26 02:28S 29°52' E 031°02'0 0.0
2017-Jun-26 01:58S 29°52' E 031°02'0 0.0
2017-Jun-26 01:24S 29°52' E 031°02'1 1.9
2017-Jun-26 01:00S 29°53' E 031°01'0 0.8
2017-Jun-26 00:30S 29°53' E 031°02'0 0.7
2017-Jun-25 23:59S 29°52' E 031°02'0 1.0
2017-Jun-25 23:30S 29°52' E 031°02'0 0.0
2017-Jun-25 22:51S 29°52' E 031°02'0 0.0
2017-Jun-25 22:27S 29°52' E 031°02'0 0.0
2017-Jun-25 21:57S 29°52' E 031°02'1 1.7
2017-Jun-25 21:30S 29°52' E 031°01'1 1.5
2017-Jun-25 20:41S 29°53' E 031°00'1 4.2
2017-Jun-25 20:28S 29°52' E 031°01'2 3.6
2017-Jun-25 19:58S 29°52' E 031°03'0 0.0
2017-Jun-25 19:28S 29°52' E 031°03'0 0.0
2017-Jun-25 18:58S 29°52' E 031°03'1 1.1
2017-Jun-25 18:28S 29°52' E 031°02'0 0.0
2017-Jun-25 18:00S 29°52' E 031°02'0 0.3
2017-Jun-25 17:28S 29°52' E 031°02'0 0.2
2017-Jun-25 17:00S 29°52' E 031°02'1 1.1
2017-Jun-25 16:30S 29°52' E 031°02'0 0.0
2017-Jun-25 16:00S 29°52' E 031°02'0 0.0
2017-Jun-25 15:30S 29°52' E 031°02'0 0.0
2017-Jun-25 15:00S 29°52' E 031°02'1 2.4
2017-Jun-25 14:29S 29°53' E 031°01'1 1.2
2017-Jun-25 13:30S 29°53' E 031°03'1 1.7
2017-Jun-25 13:00S 29°52' E 031°02'0 0.6
2017-Jun-25 12:27S 29°52' E 031°02'0 0.0
2017-Jun-25 11:57S 29°52' E 031°02'0 0.0
2017-Jun-25 11:27S 29°52' E 031°02'0 0.0
2017-Jun-25 11:00S 29°52' E 031°02'1 1.3
2017-Jun-25 10:30S 29°52' E 031°02'0 0.5
2017-Jun-25 10:00S 29°53' E 031°02'0 0.7
2017-Jun-25 09:30S 29°52' E 031°03'0 0.0
2017-Jun-25 08:57S 29°52' E 031°03'0 0.9
2017-Jun-25 08:30S 29°52' E 031°02'1 1.4
2017-Jun-25 08:00S 29°52' E 031°02'0 0.0
2017-Jun-25 07:30S 29°52' E 031°02'0 0.0
2017-Jun-25 07:00S 29°52' E 031°02'0 0.0
2017-Jun-25 06:30S 29°52' E 031°02'1 1.0
2017-Jun-25 05:53S 29°52' E 031°02'1 2.1
2017-Jun-25 05:30S 29°53' E 031°03'1 2.6
2017-Jun-25 04:59S 29°52' E 031°02'0 0.0
2017-Jun-25 04:29S 29°52' E 031°02'0 0.0
2017-Jun-25 03:56S 29°52' E 031°02'0 0.0
2017-Jun-25 03:29S 29°52' E 031°02'0 0.0
2017-Jun-25 02:50S 29°52' E 031°02'0 0.0
2017-Jun-25 02:26S 29°52' E 031°02'0 0.0
2017-Jun-25 01:59S 29°52' E 031°02'0 0.0
2017-Jun-25 01:26S 29°52' E 031°02'0 0.0
2017-Jun-25 00:59S 29°52' E 031°02'0 0.0
2017-Jun-25 00:29S 29°52' E 031°02'0 0.0
2017-Jun-24 23:59S 29°52' E 031°02'0 0.0
2017-Jun-24 23:26S 29°52' E 031°02'0 0.0
2017-Jun-24 22:59S 29°52' E 031°02'0 0.0
2017-Jun-24 22:26S 29°52' E 031°02'0 0.0
2017-Jun-24 21:56S 29°52' E 031°02'1 2.3
2017-Jun-24 21:31S 29°53' E 031°01'0 0.1
2017-Jun-24 20:59S 29°53' E 031°01'0 0.6
2017-Jun-24 20:30S 29°53' E 031°02'1 1.8
2017-Jun-24 20:00S 29°53' E 031°02'1 1.1
2017-Jun-24 19:30S 29°53' E 031°02'1 1.9
2017-Jun-24 18:59S 29°52' E 031°03'1 1.4
2017-Jun-24 18:30S 29°52' E 031°03'0 0.6
2017-Jun-24 18:00S 29°53' E 031°03'1 2.9
2017-Jun-24 17:30S 29°53' E 031°02'0 0.5
2017-Jun-24 16:58S 29°53' E 031°02'1 2.4
2017-Jun-24 16:28S 29°52' E 031°02'0 0.0
2017-Jun-24 15:58S 29°52' E 031°02'0 0.0
2017-Jun-24 15:28S 29°52' E 031°02'0 0.0
2017-Jun-24 14:58S 29°52' E 031°02'0 0.0
2017-Jun-24 13:58S 29°52' E 031°02'0 0.0
2017-Jun-24 13:28S 29°52' E 031°02'0 0.0
2017-Jun-24 12:58S 29°52' E 031°02'0 0.0
2017-Jun-24 12:28S 29°52' E 031°02'0 0.0
2017-Jun-24 11:58S 29°52' E 031°02'0 0.0
2017-Jun-24 11:28S 29°52' E 031°02'0 0.0
2017-Jun-24 10:58S 29°52' E 031°02'0 0.1
2017-Jun-24 10:30S 29°52' E 031°02'1 2.8
2017-Jun-24 09:59S 29°53' E 031°02'1 2.3
2017-Jun-24 09:30S 29°52' E 031°02'0 0.7
2017-Jun-24 08:55S 29°52' E 031°02'0 0.0
2017-Jun-24 08:25S 29°52' E 031°02'0 0.0
2017-Jun-24 07:55S 29°52' E 031°02'0 0.0
2017-Jun-24 07:22S 29°52' E 031°02'0 0.0
2017-Jun-24 06:55S 29°52' E 031°02'1 3.4
2017-Jun-24 06:29S 29°53' E 031°03'0 0.6
2017-Jun-24 06:00S 29°53' E 031°03'1 1.6
2017-Jun-24 05:30S 29°52' E 031°02'1 1.1
2017-Jun-24 05:00S 29°52' E 031°02'0 0.0
2017-Jun-24 04:30S 29°52' E 031°02'0 0.0
2017-Jun-24 04:00S 29°52' E 031°02'0 0.0
2017-Jun-24 03:30S 29°52' E 031°02'1 1.2
2017-Jun-24 03:00S 29°52' E 031°02'1 1.3
2017-Jun-24 02:30S 29°53' E 031°01'1 1.5
2017-Jun-24 02:00S 29°52' E 031°02'1 1.3
2017-Jun-24 01:30S 29°52' E 031°02'0 0.0
2017-Jun-24 01:00S 29°52' E 031°02'0 0.6
2017-Jun-24 00:30S 29°52' E 031°02'1 1.5
2017-Jun-24 00:00S 29°53' E 031°01'0 0.4
2017-Jun-23 23:30S 29°53' E 031°02'1 1.5
2017-Jun-23 23:01S 29°53' E 031°02'1 1.6
2017-Jun-23 22:27S 29°52' E 031°02'0 0.0
2017-Jun-23 22:00S 29°52' E 031°02'0 0.0
2017-Jun-23 21:27S 29°52' E 031°02'0 0.0
2017-Jun-23 21:00S 29°52' E 031°02'1 1.0
2017-Jun-23 20:29S 29°52' E 031°02'1 1.0
2017-Jun-23 19:59S 29°53' E 031°02'1 1.3
2017-Jun-23 19:30S 29°52' E 031°02'0 0.8
2017-Jun-23 18:57S 29°52' E 031°02'0 0.0
2017-Jun-23 18:30S 29°52' E 031°02'0 0.0
2017-Jun-23 18:00S 29°52' E 031°02'0 0.0
2017-Jun-23 17:30S 29°52' E 031°02'0 0.0
2017-Jun-23 17:00S 29°52' E 031°02'0 0.0
2017-Jun-23 16:30S 29°52' E 031°02'0 0.0
2017-Jun-23 16:00S 29°52' E 031°02'0 0.0
2017-Jun-23 15:30S 29°52' E 031°02'0 0.0
2017-Jun-23 15:00S 29°52' E 031°02'0 0.0
2017-Jun-23 13:57S 29°52' E 031°02'0 0.0
2017-Jun-23 13:30S 29°52' E 031°02'0 0.0
2017-Jun-23 13:00S 29°52' E 031°02'0 0.0
2017-Jun-23 12:24S 29°52' E 031°02'0 0.0
2017-Jun-23 12:00S 29°52' E 031°02'0 0.0
2017-Jun-23 11:30S 29°52' E 031°02'0 0.0
2017-Jun-23 11:00S 29°52' E 031°02'1 1.7
2017-Jun-23 10:16S 29°52' E 031°01'1 2.0
2017-Jun-23 10:00S 29°52' E 031°01'2 3.8
2017-Jun-23 09:30S 29°53' E 031°03'2 4.5
2017-Jun-23 09:00S 29°52' E 031°01'0 0.2
2017-Jun-23 08:22S 29°52' E 031°01'1 3.8
2017-Jun-23 07:59S 29°53' E 031°02'0 0.6
2017-Jun-23 07:28S 29°52' E 031°03'0 0.6
2017-Jun-23 07:00S 29°53' E 031°02'1 2.4
2017-Jun-23 06:30S 29°53' E 031°01'0 0.4
2017-Jun-23 06:00S 29°53' E 031°01'2 3.3
2017-Jun-23 05:30S 29°53' E 031°03'1 2.3
2017-Jun-23 04:51S 29°52' E 031°02'0 0.0
2017-Jun-23 04:30S 29°52' E 031°02'0 0.0
2017-Jun-23 03:54S 29°52' E 031°02'0 0.0
2017-Jun-23 03:27S 29°52' E 031°02'0 0.0
2017-Jun-23 03:00S 29°52' E 031°02'0 0.0
2017-Jun-23 02:27S 29°52' E 031°02'0 0.0
2017-Jun-23 02:00S 29°52' E 031°02'0 0.0
2017-Jun-23 01:06S 29°52' E 031°02'0 0.0
2017-Jun-23 00:54S 29°52' E 031°02'0 0.0
2017-Jun-23 00:27S 29°52' E 031°02'0 0.0
2017-Jun-22 23:57S 29°52' E 031°02'1 1.8
2017-Jun-22 23:28S 29°52' E 031°02'0 0.5
2017-Jun-22 22:58S 29°52' E 031°03'0 0.0
2017-Jun-22 22:28S 29°52' E 031°03'0 0.0
2017-Jun-22 21:58S 29°52' E 031°03'0 0.0
2017-Jun-22 21:28S 29°52' E 031°03'0 0.0
2017-Jun-22 20:58S 29°52' E 031°03'1 2.7
2017-Jun-22 20:30S 29°52' E 031°01'1 2.4
2017-Jun-22 19:58S 29°53' E 031°00'1 3.1
2017-Jun-22 19:30S 29°52' E 031°02'0 0.8
2017-Jun-22 18:59S 29°52' E 031°02'0 0.0
2017-Jun-22 18:29S 29°52' E 031°02'0 0.0
2017-Jun-22 17:56S 29°52' E 031°02'1 1.5
2017-Jun-22 17:30S 29°52' E 031°02'1 0.0
2017-Jun-21 21:59S 29°52' E 031°02'0 0.0
2017-Jun-21 21:30S 29°52' E 031°02'0 0.0
2017-Jun-21 20:59S 29°52' E 031°02'0 0.0
2017-Jun-21 20:29S 29°52' E 031°02'0 0.0
2017-Jun-21 20:01S 29°52' E 031°02'1 1.6
2017-Jun-21 19:30S 29°53' E 031°02'0 0.4
2017-Jun-21 19:00S 29°53' E 031°02'1 1.6
2017-Jun-21 18:24S 29°52' E 031°02'0 0.0
2017-Jun-21 18:00S 29°52' E 031°02'0 0.0
2017-Jun-21 17:30S 29°52' E 031°02'0 0.0
2017-Jun-21 17:00S 29°52' E 031°02'0 0.0
2017-Jun-21 16:30S 29°52' E 031°02'0 0.0
2017-Jun-21 16:00S 29°52' E 031°02'0 0.0
2017-Jun-21 15:30S 29°52' E 031°02'0 0.0
2017-Jun-21 15:00S 29°52' E 031°02'1 2.3
2017-Jun-21 14:30S 29°53' E 031°02'0 0.4
2017-Jun-21 13:30S 29°53' E 031°02'1 2.0
2017-Jun-21 12:59S 29°53' E 031°03'1 3.0
2017-Jun-21 12:30S 29°52' E 031°02'0 0.0
2017-Jun-21 12:00S 29°52' E 031°02'0 0.0
2017-Jun-21 11:27S 29°52' E 031°02'1 1.7
2017-Jun-21 11:00S 29°53' E 031°02'1 1.7
2017-Jun-21 10:29S 29°53' E 031°03'0 0.1
2017-Jun-21 09:59S 29°53' E 031°03'1 2.7
2017-Jun-21 09:28S 29°52' E 031°02'0 0.0
2017-Jun-21 08:55S 29°52' E 031°02'0 1.0
2017-Jun-21 08:30S 29°52' E 031°02'1 2.1
2017-Jun-21 08:00S 29°53' E 031°03'0 0.8
2017-Jun-21 07:30S 29°53' E 031°03'0 0.8
2017-Jun-21 06:58S 29°53' E 031°03'0 0.6
2017-Jun-21 06:30S 29°53' E 031°03'2 3.5
2017-Jun-21 05:57S 29°52' E 031°01'1 2.4
2017-Jun-21 05:27S 29°52' E 031°02'0 0.0
2017-Jun-21 04:57S 29°52' E 031°02'0 0.0
2017-Jun-21 04:27S 29°52' E 031°02'0 0.0
2017-Jun-21 03:57S 29°52' E 031°02'0 0.0
2017-Jun-21 03:21S 29°52' E 031°02'0 0.0
2017-Jun-21 02:57S 29°52' E 031°02'0 0.0
2017-Jun-21 02:27S 29°52' E 031°02'0 0.0
2017-Jun-21 02:00S 29°52' E 031°02'0 0.0
2017-Jun-21 01:27S 29°52' E 031°02'0 0.0
2017-Jun-21 00:57S 29°52' E 031°02'0 0.0
2017-Jun-21 00:27S 29°52' E 031°02'0 0.0
2017-Jun-20 23:51S 29°52' E 031°02'0 0.0
2017-Jun-20 23:27S 29°52' E 031°02'0 0.0
2017-Jun-20 23:00S 29°52' E 031°02'0 0.6
2017-Jun-20 22:30S 29°52' E 031°02'1 1.2
2017-Jun-20 22:00S 29°53' E 031°02'1 1.2
2017-Jun-20 21:30S 29°53' E 031°02'1 1.1
2017-Jun-20 21:00S 29°53' E 031°03'1 1.4
2017-Jun-20 20:07S 29°52' E 031°02'0 0.0
2017-Jun-20 19:55S 29°52' E 031°02'0 0.0
2017-Jun-20 19:19S 29°52' E 031°02'0 0.0
2017-Jun-20 18:55S 29°52' E 031°02'0 0.0
2017-Jun-20 18:25S 29°52' E 031°02'0 0.0
2017-Jun-20 17:55S 29°52' E 031°02'0 0.0
2017-Jun-20 17:25S 29°52' E 031°02'0 0.0
2017-Jun-20 16:49S 29°52' E 031°02'0 0.0
2017-Jun-20 16:25S 29°52' E 031°02'0 0.0
2017-Jun-20 15:49S 29°52' E 031°02'0 0.0
2017-Jun-20 15:19S 29°52' E 031°02'0 0.0
2017-Jun-20 14:49S 29°52' E 031°02'1 2.7
2017-Jun-20 14:30S 29°53' E 031°02'1 0.8
2017-Jun-20 13:30S 29°52' E 031°02'0 0.0
2017-Jun-20 13:00S 29°52' E 031°02'0 0.0
2017-Jun-20 12:30S 29°52' E 031°02'0 0.0
2017-Jun-20 11:57S 29°52' E 031°02'0 0.0
2017-Jun-20 11:30S 29°52' E 031°02'0 0.2
2017-Jun-20 11:00S 29°52' E 031°02'0 0.0
2017-Jun-20 10:27S 29°52' E 031°02'0 0.0
2017-Jun-20 09:51S 29°52' E 031°02'0 0.0
2017-Jun-20 08:33S 29°52' E 031°02'0 0.0
2017-Jun-20 08:27S 29°52' E 031°02'0 0.0
2017-Jun-20 07:51S 29°52' E 031°02'0 0.0
2017-Jun-20 07:30S 29°52' E 031°02'0 0.0
2017-Jun-20 06:57S 29°52' E 031°02'0 1.0
2017-Jun-20 06:30S 29°52' E 031°02'0 0.8
2017-Jun-20 06:00S 29°52' E 031°02'1 1.3
2017-Jun-20 05:30S 29°52' E 031°02'0 0.5
2017-Jun-20 04:59S 29°52' E 031°02'0 0.1
2017-Jun-20 04:28S 29°52' E 031°02'0 0.0
2017-Jun-20 03:58S 29°52' E 031°02'0 0.0
2017-Jun-20 03:28S 29°52' E 031°02'0 0.0
2017-Jun-20 02:55S 29°52' E 031°02'0 0.0
2017-Jun-20 02:28S 29°52' E 031°02'0 0.0
2017-Jun-20 01:58S 29°52' E 031°02'0 0.0
2017-Jun-20 01:28S 29°52' E 031°02'0 0.0
2017-Jun-20 00:58S 29°52' E 031°02'0 0.0
2017-Jun-20 00:28S 29°52' E 031°02'0 0.0
2017-Jun-19 23:58S 29°52' E 031°02'0 0.0
2017-Jun-19 23:28S 29°52' E 031°02'0 0.0
2017-Jun-19 22:52S 29°52' E 031°02'0 0.0
2017-Jun-19 22:25S 29°52' E 031°02'0 1.1
2017-Jun-19 22:00S 29°52' E 031°01'2 3.0
2017-Jun-19 21:25S 29°53' E 030°60'1 2.9
2017-Jun-19 20:59S 29°52' E 031°01'1 2.6
2017-Jun-19 20:30S 29°52' E 031°02'1 1.3
2017-Jun-19 19:54S 29°52' E 031°02'0 0.0
2017-Jun-19 19:24S 29°52' E 031°02'0 0.0
2017-Jun-19 19:00S 29°52' E 031°02'0 0.0
2017-Jun-19 18:03S 29°52' E 031°02'0 0.0
2017-Jun-19 17:36S 29°52' E 031°02'0 0.0
2017-Jun-19 17:18S 29°52' E 031°02'0 0.0
2017-Jun-19 16:51S 29°52' E 031°02'0 0.0
2017-Jun-19 15:00S 29°52' E 031°02'0 0.0
2017-Jun-19 14:30S 29°52' E 031°02'0 0.0
2017-Jun-19 13:30S 29°52' E 031°02'1 1.8
2017-Jun-19 12:59S 29°53' E 031°02'0 1.0
2017-Jun-19 12:30S 29°53' E 031°03'1 2.6
2017-Jun-19 12:00S 29°52' E 031°02'0 0.0
2017-Jun-19 11:30S 29°52' E 031°02'0 0.0
2017-Jun-19 11:00S 29°52' E 031°02'0 0.0
2017-Jun-19 10:30S 29°52' E 031°02'0 0.0
2017-Jun-19 10:00S 29°52' E 031°02'0 0.0
2017-Jun-19 09:30S 29°52' E 031°02'0 0.0
2017-Jun-19 09:00S 29°52' E 031°02'0 0.7
2017-Jun-19 08:30S 29°52' E 031°02'1 2.5
2017-Jun-19 08:00S 29°53' E 031°03'0 0.1
2017-Jun-19 07:30S 29°53' E 031°03'0 0.7
2017-Jun-19 07:00S 29°52' E 031°03'0 0.0
2017-Jun-19 06:30S 29°52' E 031°03'1 2.4
2017-Jun-19 05:59S 29°53' E 031°01'1 2.4
2017-Jun-19 05:30S 29°53' E 031°03'1 2.2
2017-Jun-19 04:59S 29°52' E 031°02'0 0.0
2017-Jun-19 04:20S 29°52' E 031°02'0 0.0
2017-Jun-19 03:50S 29°52' E 031°02'0 0.0
2017-Jun-19 03:26S 29°52' E 031°02'0 0.0
2017-Jun-19 02:59S 29°52' E 031°02'1 2.0
2017-Jun-19 02:30S 29°53' E 031°02'1 1.7
2017-Jun-19 02:00S 29°53' E 031°02'0 0.6
2017-Jun-19 01:29S 29°53' E 031°01'1 1.5
2017-Jun-19 00:46S 29°52' E 031°02'0 0.0
2017-Jun-19 00:28S 29°52' E 031°02'0 0.0
2017-Jun-18 23:58S 29°52' E 031°02'0 0.0
2017-Jun-18 23:22S 29°52' E 031°02'0 0.0
2017-Jun-18 22:53S 29°52' E 031°02'0 0.0
2017-Jun-18 22:22S 29°52' E 031°02'0 0.0
2017-Jun-18 21:58S 29°52' E 031°02'0 0.0
2017-Jun-18 21:29S 29°52' E 031°02'0 0.3
2017-Jun-18 21:01S 29°52' E 031°02'1 2.1
2017-Jun-18 20:22S 29°53' E 031°02'0 0.0
2017-Jun-18 20:01S 29°53' E 031°02'0 0.5
2017-Jun-18 19:30S 29°53' E 031°02'1 1.3
2017-Jun-18 18:25S 29°52' E 031°02'0 0.0
2017-Jun-18 17:54S 29°52' E 031°02'1 1.9
2017-Jun-18 17:29S 29°53' E 031°02'0 0.8
2017-Jun-18 16:57S 29°52' E 031°02'1 1.0
2017-Jun-18 16:24S 29°52' E 031°02'0 0.0
2017-Jun-18 15:54S 29°52' E 031°02'0 0.0
2017-Jun-18 15:22S 29°52' E 031°02'1 2.8
2017-Jun-18 14:59S 29°53' E 031°02'1 0.6
2017-Jun-18 13:58S 29°52' E 031°02'1 1.5
2017-Jun-18 13:30S 29°53' E 031°03'1 1.6
2017-Jun-18 13:00S 29°52' E 031°02'0 0.8
2017-Jun-18 12:30S 29°52' E 031°02'0 0.8
2017-Jun-18 12:00S 29°52' E 031°02'0 0.7
2017-Jun-18 11:30S 29°52' E 031°02'0 0.0
2017-Jun-18 10:42S 29°52' E 031°02'0 0.0
2017-Jun-18 10:30S 29°52' E 031°02'0 0.0
2017-Jun-18 10:00S 29°52' E 031°02'0 0.0
2017-Jun-18 09:30S 29°52' E 031°02'0 0.0
2017-Jun-18 09:00S 29°52' E 031°02'0 1.0
2017-Jun-18 08:30S 29°52' E 031°01'2 2.4
2017-Jun-18 07:51S 29°53' E 030°60'1 3.4
2017-Jun-18 07:29S 29°52' E 031°01'1 2.4
2017-Jun-18 06:58S 29°52' E 031°02'1 2.5
2017-Jun-18 06:30S 29°53' E 031°01'0 0.5
2017-Jun-18 06:00S 29°53' E 031°01'2 3.1
2017-Jun-18 05:30S 29°53' E 031°03'1 2.0
2017-Jun-18 04:48S 29°52' E 031°02'0 0.0
2017-Jun-18 04:30S 29°52' E 031°02'0 0.0
2017-Jun-18 04:00S 29°52' E 031°02'0 0.0
2017-Jun-18 03:24S 29°52' E 031°02'0 0.0
2017-Jun-18 02:57S 29°52' E 031°02'0 0.0
2017-Jun-18 02:30S 29°52' E 031°02'0 0.0
2017-Jun-18 01:03S 29°52' E 031°02'0 0.0
2017-Jun-18 01:00S 29°52' E 031°02'0 0.0
2017-Jun-18 00:30S 29°52' E 031°02'0 0.0
2017-Jun-17 23:57S 29°52' E 031°02'0 0.0
2017-Jun-17 23:21S 29°52' E 031°02'0 0.0
2017-Jun-17 23:00S 29°52' E 031°02'0 0.0
2017-Jun-17 22:18S 29°52' E 031°02'0 0.0
2017-Jun-17 22:00S 29°52' E 031°02'0 0.0
2017-Jun-17 21:31S 29°52' E 031°02'1 2.0
2017-Jun-17 21:00S 29°53' E 031°02'0 0.4
2017-Jun-17 20:30S 29°53' E 031°02'0 0.9
2017-Jun-17 20:00S 29°52' E 031°02'1 1.8
2017-Jun-17 19:30S 29°52' E 031°02'0 0.0
2017-Jun-17 18:51S 29°52' E 031°02'1 1.4
2017-Jun-17 18:29S 29°52' E 031°02'0 0.9
2017-Jun-17 18:00S 29°52' E 031°02'0 0.1
2017-Jun-17 17:29S 29°52' E 031°02'0 0.3
2017-Jun-17 16:55S 29°52' E 031°02'0 0.0
2017-Jun-17 16:19S 29°52' E 031°02'0 0.0
2017-Jun-17 15:49S 29°52' E 031°02'0 0.0
2017-Jun-17 15:28S 29°52' E 031°02'0 0.0
2017-Jun-17 14:55S 29°52' E 031°02'0 0.0
2017-Jun-17 13:58S 29°52' E 031°02'0 0.0
2017-Jun-17 13:25S 29°52' E 031°02'0 0.0
2017-Jun-17 12:58S 29°52' E 031°02'0 0.0
2017-Jun-17 12:28S 29°52' E 031°02'0 0.0
2017-Jun-17 11:52S 29°52' E 031°02'0 0.0
2017-Jun-17 11:28S 29°52' E 031°02'0 0.0
2017-Jun-17 10:58S 29°52' E 031°02'  

Dump ship's entire track history